createdAt,value
2023-02-04T00:02:00.734Z,2.45
2023-02-04T00:04:27.371Z,1.65
2023-02-04T00:06:53.978Z,2.03
2023-02-04T00:09:20.664Z,2.58
2023-02-04T00:11:47.284Z,2.35
2023-02-04T00:14:13.994Z,1.92
2023-02-04T00:16:40.633Z,2.83
2023-02-04T00:19:07.236Z,2.65
2023-02-04T00:21:34.004Z,1.92
2023-02-04T00:24:00.640Z,2.53
2023-02-04T00:26:27.290Z,2.20
2023-02-04T00:28:53.952Z,1.88
2023-02-04T00:31:20.593Z,2.50
2023-02-04T00:33:47.212Z,3.13
2023-02-04T00:36:13.844Z,2.20
2023-02-04T00:38:40.491Z,2.67
2023-02-04T00:41:07.199Z,2.65
2023-02-04T00:43:33.975Z,2.65
2023-02-04T00:46:00.665Z,2.47
2023-02-04T00:48:27.405Z,2.40
2023-02-04T00:50:54.299Z,2.30
2023-02-04T00:53:21.020Z,2.35
2023-02-04T00:55:47.685Z,2.30
2023-02-04T00:58:14.351Z,2.30
2023-02-04T01:00:41.055Z,2.13
2023-02-04T01:03:08.000Z,2.60
2023-02-04T01:05:34.747Z,2.40
2023-02-04T01:08:01.409Z,2.58
2023-02-04T01:10:28.671Z,2.20
2023-02-04T01:12:55.792Z,2.05
2023-02-04T01:15:23.046Z,1.77
2023-02-04T01:17:49.933Z,1.77
2023-02-04T01:20:16.896Z,1.92
2023-02-04T01:22:43.711Z,1.90
2023-02-04T01:25:10.369Z,1.42
2023-02-04T01:27:37.174Z,2.00
2023-02-04T01:30:05.425Z,1.70
2023-02-04T01:32:32.166Z,1.65
2023-02-04T01:34:58.751Z,1.58
2023-02-04T01:37:25.381Z,2.42
2023-02-04T01:39:52.351Z,2.80
2023-02-04T01:42:19.084Z,1.30
2023-02-04T01:44:45.740Z,1.42
2023-02-04T01:47:12.353Z,2.33
2023-02-04T01:49:39.057Z,2.45
2023-02-04T01:52:05.800Z,1.40
2023-02-04T01:54:32.671Z,1.50
2023-02-04T01:56:59.295Z,1.52
2023-02-04T01:59:26.475Z,1.30
2023-02-04T02:01:53.377Z,1.33
2023-02-04T02:04:32.769Z,1.83
2023-02-04T02:07:01.756Z,1.60
2023-02-04T02:09:28.678Z,2.08
2023-02-04T02:11:55.405Z,1.48
2023-02-04T02:14:22.455Z,2.13
2023-02-04T02:16:49.230Z,1.88
2023-02-04T02:19:18.138Z,1.65
2023-02-04T02:21:47.279Z,2.10
2023-02-04T02:24:34.403Z,3.45
2023-02-04T02:27:03.556Z,2.65
2023-02-04T02:29:30.207Z,2.22
2023-02-04T02:31:57.913Z,3.60
2023-02-04T02:34:25.969Z,2.28
2023-02-04T02:36:53.172Z,2.70
2023-02-04T02:39:20.132Z,2.60
2023-02-04T02:41:46.793Z,2.28
2023-02-04T02:44:13.961Z,2.40
2023-02-04T02:46:40.647Z,3.47
2023-02-04T02:49:08.716Z,3.17
2023-02-04T02:51:35.331Z,3.00
2023-02-04T02:54:01.931Z,2.20
2023-02-04T02:56:28.558Z,3.58
2023-02-04T02:58:55.169Z,4.07
2023-02-04T03:01:21.999Z,4.13
2023-02-04T03:03:49.959Z,3.70
2023-02-04T03:06:20.281Z,3.70
2023-02-04T03:08:47.827Z,3.78
2023-02-04T03:11:14.514Z,3.25
2023-02-04T03:13:41.103Z,4.45
2023-02-04T03:16:08.130Z,4.28
2023-02-04T03:18:35.249Z,3.95
2023-02-04T03:21:02.035Z,3.65
2023-02-04T03:23:28.650Z,4.95
2023-02-04T03:25:55.319Z,4.10
2023-02-04T03:28:21.910Z,3.70
2023-02-04T03:30:53.693Z,3.97
2023-02-04T03:33:20.440Z,4.50
2023-02-04T03:35:47.143Z,5.00
2023-02-04T03:38:13.818Z,4.55
2023-02-04T03:40:40.710Z,3.75
2023-02-04T03:43:07.404Z,4.80
2023-02-04T03:45:44.588Z,4.10
2023-02-04T03:48:11.788Z,4.20
2023-02-04T03:50:38.357Z,6.30
2023-02-04T03:53:04.957Z,4.03
2023-02-04T03:55:32.940Z,4.03
2023-02-04T03:57:59.638Z,4.97
2023-02-04T04:00:26.275Z,5.00
2023-02-04T04:02:52.956Z,3.83
2023-02-04T04:05:19.686Z,3.60
2023-02-04T04:07:46.302Z,3.50
2023-02-04T04:10:12.932Z,3.10
2023-02-04T04:12:39.556Z,3.80
2023-02-04T04:15:06.429Z,3.38
2023-02-04T04:17:33.045Z,3.90
2023-02-04T04:19:59.678Z,3.08
2023-02-04T04:22:26.347Z,4.65
2023-02-04T04:24:52.936Z,4.05
2023-02-04T04:27:19.611Z,3.58
2023-02-04T04:29:46.253Z,3.47
2023-02-04T04:32:12.899Z,3.97
2023-02-04T04:34:39.556Z,3.13
2023-02-04T04:37:06.200Z,3.30
2023-02-04T04:39:32.796Z,4.05
2023-02-04T04:41:59.402Z,3.92
2023-02-04T04:44:25.985Z,4.35
2023-02-04T04:46:52.660Z,5.53
2023-02-04T04:49:19.392Z,4.05
2023-02-04T04:51:46.000Z,4.18
2023-02-04T04:54:12.710Z,5.07
2023-02-04T04:56:39.381Z,3.42
2023-02-04T04:59:06.003Z,4.05
2023-02-04T05:01:32.842Z,3.95
2023-02-04T05:03:59.425Z,4.35
2023-02-04T05:06:26.239Z,4.15
2023-02-04T05:08:52.948Z,3.38
2023-02-04T05:11:19.825Z,6.00
2023-02-04T05:13:47.007Z,3.20
2023-02-04T05:16:13.843Z,4.15
2023-02-04T05:18:40.721Z,6.15
2023-02-04T05:21:07.417Z,4.40
2023-02-04T05:23:34.182Z,4.38
2023-02-04T05:26:00.830Z,4.10
2023-02-04T05:28:27.505Z,3.13
2023-02-04T05:30:54.190Z,4.00
2023-02-04T05:33:20.866Z,3.00
2023-02-04T05:35:49.606Z,3.83
2023-02-04T05:38:16.558Z,4.20
2023-02-04T05:40:43.170Z,3.47
2023-02-04T05:43:09.861Z,2.92
2023-02-04T05:45:36.566Z,3.40
2023-02-04T05:48:03.409Z,3.25
2023-02-04T05:50:30.212Z,4.90
2023-02-04T05:52:56.964Z,4.35
2023-02-04T05:55:23.556Z,3.67
2023-02-04T05:57:50.223Z,4.18
2023-02-04T06:00:17.096Z,3.20
2023-02-04T06:02:43.725Z,3.85
2023-02-04T06:05:10.335Z,4.25
2023-02-04T06:07:36.987Z,4.10
2023-02-04T06:10:03.730Z,2.95
2023-02-04T06:12:30.800Z,3.75
2023-02-04T06:14:57.424Z,3.33
2023-02-04T06:17:24.024Z,4.55
2023-02-04T06:19:50.630Z,3.75
2023-02-04T06:22:17.557Z,3.47
2023-02-04T06:24:45.594Z,4.43
2023-02-04T06:27:13.200Z,4.20
2023-02-04T06:29:39.870Z,3.78
2023-02-04T06:32:06.450Z,4.50
2023-02-04T06:34:33.127Z,3.50
2023-02-04T06:36:59.801Z,3.78
2023-02-04T06:39:26.408Z,3.90
2023-02-04T06:41:53.077Z,4.38
2023-02-04T06:44:19.663Z,4.53
2023-02-04T06:46:46.306Z,4.22
2023-02-04T06:49:12.988Z,4.07
2023-02-04T06:51:39.589Z,4.28
2023-02-04T06:54:06.221Z,3.65
2023-02-04T06:56:32.862Z,3.65
2023-02-04T06:58:59.495Z,4.75
2023-02-04T07:01:26.124Z,5.03
2023-02-04T07:03:52.789Z,4.63
2023-02-04T07:06:19.432Z,3.60
2023-02-04T07:08:47.378Z,3.47
2023-02-04T07:11:14.060Z,3.60
2023-02-04T07:13:40.878Z,3.28
2023-02-04T07:16:07.966Z,5.35
2023-02-04T07:18:34.575Z,4.78
2023-02-04T07:21:01.180Z,3.85
2023-02-04T07:23:28.588Z,3.38
2023-02-04T07:25:57.305Z,3.50
2023-02-04T07:28:23.982Z,3.58
2023-02-04T07:30:50.707Z,3.45
2023-02-04T07:33:17.575Z,4.07
2023-02-04T07:35:44.443Z,3.58
2023-02-04T07:38:11.027Z,3.90
2023-02-04T07:40:39.076Z,3.50
2023-02-04T07:43:05.902Z,3.38
2023-02-04T07:45:32.532Z,3.83
2023-02-04T07:47:59.234Z,3.55
2023-02-04T07:50:25.883Z,2.80
2023-02-04T07:52:52.509Z,3.63
2023-02-04T07:55:19.230Z,3.20
2023-02-04T07:57:45.816Z,3.92
2023-02-04T08:00:14.048Z,3.40
2023-02-04T08:02:41.812Z,3.22
2023-02-04T08:05:09.519Z,3.97
2023-02-04T08:07:36.249Z,3.35
2023-02-04T08:10:04.439Z,3.60
2023-02-04T08:12:31.068Z,3.25
2023-02-04T08:14:57.677Z,2.92
2023-02-04T08:17:24.344Z,3.30
2023-02-04T08:19:52.472Z,3.85
2023-02-04T08:22:19.228Z,3.97
2023-02-04T08:24:46.084Z,3.75
2023-02-04T08:27:12.713Z,4.00
2023-02-04T08:29:39.383Z,3.50
2023-02-04T08:32:06.215Z,3.35
2023-02-04T08:34:32.899Z,3.72
2023-02-04T08:36:59.533Z,4.45
2023-02-04T08:39:26.425Z,3.08
2023-02-04T08:41:53.195Z,3.13
2023-02-04T08:44:19.843Z,3.90
2023-02-04T08:46:46.473Z,3.15
2023-02-04T08:49:13.163Z,3.53
2023-02-04T08:51:39.834Z,3.10
2023-02-04T08:54:06.489Z,4.63
2023-02-04T08:56:33.120Z,4.18
2023-02-04T08:58:59.734Z,3.63
2023-02-04T09:01:26.309Z,4.05
2023-02-04T09:03:53.030Z,2.92
2023-02-04T09:06:19.832Z,4.03
2023-02-04T09:08:46.516Z,3.28
2023-02-04T09:11:13.102Z,2.53
2023-02-04T09:13:39.862Z,2.75
2023-02-04T09:16:06.691Z,3.03
2023-02-04T09:18:33.336Z,5.35
2023-02-04T09:20:59.983Z,3.63
2023-02-04T09:23:26.684Z,3.58
2023-02-04T09:25:53.307Z,3.03
2023-02-04T09:28:20.084Z,2.80
2023-02-04T09:30:47.233Z,4.53
2023-02-04T09:33:14.621Z,3.10
2023-02-04T09:35:41.301Z,3.10
2023-02-04T09:38:07.979Z,3.38
2023-02-04T09:40:36.393Z,2.80
2023-02-04T09:43:03.855Z,3.72
2023-02-04T09:45:33.102Z,3.80
2023-02-04T09:47:59.920Z,2.72
2023-02-04T09:50:27.524Z,3.97
2023-02-04T09:52:56.880Z,3.10
2023-02-04T09:55:30.130Z,4.53
2023-02-04T09:57:56.981Z,3.10
2023-02-04T10:00:25.444Z,3.75
2023-02-04T10:02:53.216Z,3.53
2023-02-04T10:05:24.559Z,3.80
2023-02-04T10:07:51.163Z,4.75
2023-02-04T10:10:20.961Z,3.85
2023-02-04T10:12:49.652Z,2.90
2023-02-04T10:15:19.381Z,3.30
2023-02-04T10:18:01.911Z,3.33
2023-02-04T10:20:28.600Z,3.15
2023-02-04T10:22:55.282Z,2.97
2023-02-04T10:25:23.593Z,3.75
2023-02-04T10:27:51.580Z,3.95
2023-02-04T10:30:21.556Z,3.50
2023-02-04T10:32:48.289Z,2.78
2023-02-04T10:35:16.259Z,2.42
2023-02-04T10:37:43.074Z,3.80
2023-02-04T10:40:31.768Z,2.28
2023-02-04T10:42:58.839Z,2.67
2023-02-04T10:45:27.966Z,2.63
2023-02-04T10:47:55.341Z,2.22
2023-02-04T10:50:24.179Z,2.45
2023-02-04T10:53:18.976Z,1.77
2023-02-04T10:55:46.455Z,1.60
2023-02-04T10:58:15.045Z,2.40
2023-02-04T11:00:41.755Z,2.78
2023-02-04T11:03:12.170Z,2.38
2023-02-04T11:05:38.880Z,2.40
2023-02-04T11:08:25.663Z,2.60
2023-02-04T11:10:57.877Z,2.45
2023-02-04T11:13:27.042Z,2.28
2023-02-04T11:16:25.528Z,2.92
2023-02-04T11:18:55.065Z,2.17
2023-02-04T11:21:42.420Z,1.52
2023-02-04T11:26:52.466Z,1.63
2023-02-04T11:29:31.055Z,2.03
2023-02-04T11:32:00.235Z,1.80
2023-02-04T11:34:28.661Z,1.30
2023-02-04T11:39:36.841Z,1.30
2023-02-04T11:42:04.442Z,1.13
2023-02-04T11:44:31.312Z,1.77
2023-02-04T11:46:58.448Z,1.67
2023-02-04T11:49:26.373Z,2.70
2023-02-04T11:52:08.540Z,2.22
2023-02-04T11:54:36.304Z,1.35
2023-02-04T11:57:03.234Z,1.33
2023-02-04T11:59:29.901Z,1.30
2023-02-04T12:02:17.982Z,2.08
2023-02-04T12:04:53.355Z,1.25
2023-02-04T12:07:28.492Z,1.40
2023-02-04T12:09:55.550Z,1.40
2023-02-04T12:12:24.802Z,1.50
2023-02-04T12:15:04.121Z,1.67
2023-02-04T12:17:30.808Z,1.60
2023-02-04T12:19:57.469Z,3.78
2023-02-04T12:22:24.182Z,1.75
2023-02-04T12:24:52.289Z,2.00
2023-02-04T12:27:19.318Z,2.92
2023-02-04T12:29:45.973Z,1.80
2023-02-04T12:32:12.712Z,1.75
2023-02-04T12:34:39.401Z,2.03
2023-02-04T12:37:06.011Z,2.13
2023-02-04T12:39:32.626Z,3.08
2023-02-04T12:41:59.157Z,3.10
2023-02-04T12:44:25.789Z,2.78
2023-02-04T12:46:52.595Z,1.85
2023-02-04T12:49:19.230Z,3.40
2023-02-04T12:51:46.019Z,2.67
2023-02-04T12:54:12.695Z,1.67
2023-02-04T12:56:39.236Z,2.58
2023-02-04T12:59:05.829Z,1.77
2023-02-04T13:01:33.576Z,3.05
2023-02-04T13:04:00.217Z,2.25
2023-02-04T13:06:26.835Z,2.13
2023-02-04T13:08:53.439Z,1.85
2023-02-04T13:11:20.075Z,2.40
2023-02-04T13:13:46.626Z,2.50
2023-02-04T13:16:13.230Z,3.35
2023-02-04T13:18:39.930Z,2.28
2023-02-04T13:21:06.534Z,1.75
2023-02-04T13:23:33.177Z,1.60
2023-02-04T13:25:59.804Z,1.98
2023-02-04T13:28:26.551Z,1.77
2023-02-04T13:30:53.349Z,2.28
2023-02-04T13:33:19.969Z,2.10
2023-02-04T13:35:46.721Z,1.50
2023-02-04T13:38:13.396Z,2.08
2023-02-04T13:40:39.997Z,2.60
2023-02-04T13:43:06.748Z,1.95
2023-02-04T13:45:33.799Z,2.40
2023-02-04T13:48:00.704Z,2.22
2023-02-04T13:50:27.381Z,2.63
2023-02-04T13:52:55.210Z,1.92
2023-02-04T13:55:22.122Z,2.88
2023-02-04T13:57:48.753Z,3.22
2023-02-04T14:00:15.715Z,2.00
2023-02-04T14:02:42.843Z,1.70
2023-02-04T14:05:09.580Z,1.17
2023-02-04T14:07:36.185Z,1.80
2023-02-04T14:10:02.813Z,1.65
2023-02-04T14:12:29.485Z,2.25
2023-02-04T14:14:56.336Z,2.33
2023-02-04T14:17:23.089Z,1.45
2023-02-04T14:19:49.827Z,1.60
2023-02-04T14:22:16.457Z,1.27
2023-02-04T14:24:43.526Z,1.60
2023-02-04T14:27:10.255Z,1.45
2023-02-04T14:29:37.054Z,1.48
2023-02-04T14:32:03.943Z,1.27
2023-02-04T14:34:30.620Z,1.20
2023-02-04T14:36:57.356Z,1.33
2023-02-04T14:39:23.990Z,1.20
2023-02-04T14:41:50.849Z,1.38
2023-02-04T14:44:20.746Z,1.77
2023-02-04T14:46:48.875Z,1.60
2023-02-04T14:49:16.191Z,2.97
2023-02-04T14:51:42.968Z,1.60
2023-02-04T14:54:09.734Z,2.15
2023-02-04T14:56:36.558Z,2.40
2023-02-04T14:59:03.259Z,1.88
2023-02-04T15:01:30.931Z,1.92
2023-02-04T15:03:58.161Z,2.20
2023-02-04T15:06:24.899Z,1.50
2023-02-04T15:08:51.550Z,1.33
2023-02-04T15:11:18.427Z,1.90
2023-02-04T15:13:45.001Z,2.08
2023-02-04T15:16:12.330Z,1.40
2023-02-04T15:18:39.075Z,2.15
2023-02-04T15:21:05.828Z,1.30
2023-02-04T15:23:32.445Z,1.80
2023-02-04T15:25:59.099Z,1.60
2023-02-04T15:28:27.665Z,1.45
2023-02-04T15:30:54.565Z,1.80
2023-02-04T15:33:21.287Z,1.45
2023-02-04T15:35:47.939Z,1.75
2023-02-04T15:38:14.585Z,2.05
2023-02-04T15:40:41.246Z,1.67
2023-02-04T15:43:07.835Z,1.90
2023-02-04T15:45:34.445Z,1.58
2023-02-04T15:48:01.043Z,1.48
2023-02-04T15:50:28.588Z,2.28
2023-02-04T15:52:55.274Z,2.17
2023-02-04T15:55:21.945Z,2.17
2023-02-04T15:57:48.565Z,1.80
2023-02-04T16:00:15.546Z,1.95
2023-02-04T16:02:42.311Z,1.83
2023-02-04T16:05:09.043Z,2.15
2023-02-04T16:07:35.822Z,1.90
2023-02-04T16:10:05.378Z,1.75
2023-02-04T16:12:32.060Z,2.25
2023-02-04T16:14:58.688Z,2.20
2023-02-04T16:17:25.513Z,2.08
2023-02-04T16:19:52.116Z,1.45
2023-02-04T16:22:18.803Z,2.25
2023-02-04T16:24:45.585Z,2.28
2023-02-04T16:27:12.210Z,2.17
2023-02-04T16:29:38.843Z,2.20
2023-02-04T16:32:05.724Z,3.30
2023-02-04T16:34:32.401Z,1.95
2023-02-04T16:36:58.992Z,1.83
2023-02-04T16:39:25.682Z,2.13
2023-02-04T16:41:52.342Z,2.20
2023-02-04T16:44:18.954Z,2.80
2023-02-04T16:46:45.615Z,2.00
2023-02-04T16:49:12.301Z,2.35
2023-02-04T16:51:38.913Z,5.93
2023-02-04T16:54:05.595Z,3.22
2023-02-04T16:56:35.462Z,2.65
2023-02-04T16:59:02.474Z,2.30
2023-02-04T17:01:29.171Z,3.25
2023-02-04T17:03:58.271Z,1.95
2023-02-04T17:06:26.369Z,2.47
2023-02-04T17:08:52.954Z,2.05
2023-02-04T17:11:34.716Z,2.70
2023-02-04T17:14:05.197Z,2.13
2023-02-04T17:16:32.710Z,1.95
2023-02-04T17:18:59.729Z,2.72
2023-02-04T17:21:26.864Z,2.50
2023-02-04T17:23:53.526Z,2.80
2023-02-04T17:26:20.245Z,2.67
2023-02-04T17:28:47.072Z,2.72
2023-02-04T17:31:13.837Z,2.85
2023-02-04T17:33:40.634Z,2.53
2023-02-04T17:36:07.697Z,2.92
2023-02-04T17:38:34.361Z,2.97
2023-02-04T17:41:02.503Z,2.53
2023-02-04T17:43:29.247Z,3.45
2023-02-04T17:45:56.080Z,3.63
2023-02-04T17:48:22.764Z,3.35
2023-02-04T17:50:49.496Z,2.53
2023-02-04T17:53:16.180Z,3.25
2023-02-04T17:55:42.867Z,2.20
2023-02-04T17:58:32.957Z,2.90
2023-02-04T18:00:59.759Z,2.50
2023-02-04T18:03:27.784Z,3.95
2023-02-04T18:05:55.863Z,2.97
2023-02-04T18:08:25.408Z,3.50
2023-02-04T18:10:53.586Z,3.30
2023-02-04T18:13:30.282Z,3.20
2023-02-04T18:15:59.780Z,5.35
2023-02-04T18:18:28.354Z,3.05
2023-02-04T18:21:01.369Z,2.95
2023-02-04T18:23:29.738Z,3.65
2023-02-04T18:26:00.527Z,2.97
2023-02-04T18:28:27.182Z,2.95
2023-02-04T18:30:54.399Z,3.15
2023-02-04T18:33:23.587Z,2.30
2023-02-04T18:35:51.520Z,2.25
2023-02-04T18:41:02.858Z,2.70
2023-02-04T18:43:32.241Z,2.50
2023-02-04T18:46:01.103Z,2.88
2023-02-04T18:51:07.059Z,3.20
2023-02-04T18:53:35.239Z,2.50
2023-02-04T18:56:02.140Z,3.28
2023-02-04T18:58:37.627Z,3.42
2023-02-04T19:01:15.959Z,5.45
2023-02-04T19:03:59.920Z,3.63
2023-02-04T19:06:29.217Z,2.50
2023-02-04T19:09:05.049Z,3.13
2023-02-04T19:11:43.360Z,3.22
2023-02-04T19:16:54.617Z,3.05
2023-02-04T19:19:38.511Z,2.47
2023-02-04T19:25:33.739Z,2.92
2023-02-04T19:28:01.951Z,2.75
2023-02-04T19:33:16.249Z,3.20
2023-02-04T19:35:43.336Z,3.45
2023-02-04T19:38:39.400Z,3.40
2023-02-04T19:41:27.189Z,4.15
2023-02-04T19:44:16.232Z,4.18
2023-02-04T19:46:42.906Z,4.30
2023-02-04T19:49:13.560Z,3.50
2023-02-04T19:51:40.740Z,4.03
2023-02-04T19:54:38.461Z,4.45
2023-02-04T19:57:21.869Z,3.13
2023-02-04T19:59:48.468Z,3.88
2023-02-04T20:02:35.690Z,3.10
2023-02-04T20:05:02.478Z,3.90
2023-02-04T20:07:32.227Z,3.53
2023-02-04T20:12:42.468Z,3.30
2023-02-04T20:15:17.497Z,3.08
2023-02-04T20:17:46.462Z,3.40
2023-02-04T20:20:29.801Z,3.25
2023-02-04T20:22:59.204Z,3.92
2023-02-04T20:25:45.595Z,4.68
2023-02-04T20:28:16.952Z,3.10
2023-02-04T20:30:43.793Z,3.90
2023-02-04T20:33:39.442Z,3.97
2023-02-04T20:42:24.144Z,3.83
2023-02-04T20:44:50.789Z,2.50
2023-02-04T20:47:19.390Z,2.65
2023-02-04T20:49:53.851Z,2.88
2023-02-04T20:55:31.371Z,3.17
2023-02-04T20:58:11.162Z,3.65
2023-02-04T21:00:39.296Z,4.35
2023-02-04T21:05:50.394Z,4.40
2023-02-04T21:08:44.884Z,4.40
2023-02-04T21:11:11.498Z,5.57
2023-02-04T21:13:38.789Z,4.97
2023-02-04T21:16:06.377Z,3.42
2023-02-04T21:18:34.615Z,3.30
2023-02-04T21:21:02.927Z,3.40
2023-02-04T21:23:29.621Z,3.17
2023-02-04T21:25:56.223Z,3.08
2023-02-04T21:28:22.845Z,2.90
2023-02-04T21:30:49.658Z,3.17
2023-02-04T21:33:17.198Z,3.50
2023-02-04T21:35:43.959Z,4.55
2023-02-04T21:38:10.977Z,3.72
2023-02-04T21:40:38.139Z,5.28
2023-02-04T21:43:06.372Z,4.97
2023-02-04T21:45:33.584Z,4.20
2023-02-04T21:48:00.434Z,5.10
2023-02-04T21:50:27.222Z,3.60
2023-02-04T21:52:53.818Z,3.03
2023-02-04T21:55:21.823Z,3.00
2023-02-04T21:57:49.718Z,3.53
2023-02-04T22:00:17.712Z,3.00
2023-02-04T22:02:44.308Z,2.92
2023-02-04T22:05:11.309Z,3.20
2023-02-04T22:07:38.180Z,2.92
2023-02-04T22:10:06.816Z,4.97
2023-02-04T22:12:33.605Z,4.50
2023-02-04T22:15:00.207Z,3.28
2023-02-04T22:17:26.946Z,2.75
2023-02-04T22:19:53.592Z,4.75
2023-02-04T22:22:20.248Z,3.63
2023-02-04T22:24:47.457Z,2.90
2023-02-04T22:27:14.105Z,2.40
2023-02-04T22:29:40.749Z,2.75
2023-02-04T22:32:07.388Z,2.88
2023-02-04T22:34:33.998Z,2.20
2023-02-04T22:37:00.719Z,2.92
2023-02-04T22:39:27.393Z,2.72
2023-02-04T22:41:54.368Z,2.25
2023-02-04T22:44:20.954Z,2.90
2023-02-04T22:46:47.811Z,2.65
2023-02-04T22:49:14.488Z,3.25
2023-02-04T22:51:41.170Z,2.92
2023-02-04T22:54:07.784Z,2.60
2023-02-04T22:56:34.911Z,2.50
2023-02-04T22:59:01.585Z,2.33
2023-02-04T23:01:28.246Z,3.80
2023-02-04T23:03:55.198Z,3.28
2023-02-04T23:06:22.534Z,3.85
2023-02-04T23:08:49.561Z,4.13
2023-02-04T23:11:18.330Z,3.35
2023-02-04T23:13:45.710Z,3.42
2023-02-04T23:16:12.414Z,3.33
2023-02-04T23:18:39.023Z,3.72
2023-02-04T23:21:05.827Z,2.80
2023-02-04T23:23:32.543Z,3.25
2023-02-04T23:26:00.353Z,3.22
2023-02-04T23:28:26.940Z,3.30
2023-02-04T23:30:53.612Z,3.58
2023-02-04T23:33:20.280Z,3.53
2023-02-04T23:35:46.965Z,3.28
2023-02-04T23:38:13.676Z,6.35
2023-02-04T23:40:40.320Z,3.33
2023-02-04T23:43:07.691Z,2.60
2023-02-04T23:45:35.457Z,2.83
2023-02-04T23:48:02.310Z,2.28
2023-02-04T23:50:28.901Z,2.28
2023-02-04T23:52:55.528Z,2.90
2023-02-04T23:55:22.106Z,2.47
2023-02-04T23:57:49.725Z,4.03
